sensor_id;sensor_type;location;lat;lon;timestamp;P1;durP1;ratioP1;P2;durP2;ratioP2
62709;SDS011;48770;51.624;5.886;2024-02-15T00:00:00;1.52;;;0.65;;
62709;SDS011;48770;51.624;5.886;2024-02-15T00:02:26;0.65;;;0.60;;
62709;SDS011;48770;51.624;5.886;2024-02-15T00:04:52;1.35;;;0.80;;
62709;SDS011;48770;51.624;5.886;2024-02-15T00:07:17;0.90;;;0.80;;
62709;SDS011;48770;51.624;5.886;2024-02-15T00:09:45;1.23;;;0.75;;
62709;SDS011;48770;51.624;5.886;2024-02-15T00:12:10;1.00;;;0.80;;
62709;SDS011;48770;51.624;5.886;2024-02-15T00:14:35;1.90;;;1.08;;
62709;SDS011;48770;51.624;5.886;2024-02-15T00:17:03;1.90;;;1.00;;
62709;SDS011;48770;51.624;5.886;2024-02-15T00:19:29;0.95;;;0.85;;
62709;SDS011;48770;51.624;5.886;2024-02-15T00:21:55;1.05;;;0.90;;
62709;SDS011;48770;51.624;5.886;2024-02-15T00:24:21;1.77;;;1.00;;
62709;SDS011;48770;51.624;5.886;2024-02-15T00:26:47;1.38;;;0.90;;
62709;SDS011;48770;51.624;5.886;2024-02-15T00:29:13;1.58;;;1.20;;
62709;SDS011;48770;51.624;5.886;2024-02-15T00:31:39;1.90;;;0.93;;
62709;SDS011;48770;51.624;5.886;2024-02-15T00:34:05;1.45;;;0.82;;
62709;SDS011;48770;51.624;5.886;2024-02-15T00:36:30;1.65;;;0.93;;
62709;SDS011;48770;51.624;5.886;2024-02-15T00:38:57;2.80;;;0.82;;
62709;SDS011;48770;51.624;5.886;2024-02-15T00:41:22;1.48;;;1.20;;
62709;SDS011;48770;51.624;5.886;2024-02-15T00:43:48;0.98;;;0.85;;
62709;SDS011;48770;51.624;5.886;2024-02-15T00:46:15;2.63;;;1.27;;
62709;SDS011;48770;51.624;5.886;2024-02-15T00:48:41;1.15;;;1.05;;
62709;SDS011;48770;51.624;5.886;2024-02-15T00:51:06;1.35;;;0.80;;
62709;SDS011;48770;51.624;5.886;2024-02-15T00:53:32;1.77;;;1.10;;
62709;SDS011;48770;51.624;5.886;2024-02-15T00:55:57;1.77;;;1.00;;
62709;SDS011;48770;51.624;5.886;2024-02-15T00:58:23;1.35;;;0.80;;
62709;SDS011;48770;51.624;5.886;2024-02-15T01:00:49;1.33;;;0.90;;
62709;SDS011;48770;51.624;5.886;2024-02-15T01:03:15;2.25;;;1.38;;
62709;SDS011;48770;51.624;5.886;2024-02-15T01:05:41;1.52;;;1.10;;
62709;SDS011;48770;51.624;5.886;2024-02-15T01:08:06;1.45;;;1.20;;
62709;SDS011;48770;51.624;5.886;2024-02-15T01:10:33;1.45;;;1.10;;
62709;SDS011;48770;51.624;5.886;2024-02-15T01:12:59;2.60;;;1.15;;
62709;SDS011;48770;51.624;5.886;2024-02-15T01:15:25;1.85;;;1.00;;
62709;SDS011;48770;51.624;5.886;2024-02-15T01:17:50;2.65;;;1.30;;
62709;SDS011;48770;51.624;5.886;2024-02-15T01:20:15;2.20;;;1.13;;
62709;SDS011;48770;51.624;5.886;2024-02-15T01:22:41;2.75;;;1.17;;
62709;SDS011;48770;51.624;5.886;2024-02-15T01:25:06;2.42;;;1.02;;
62709;SDS011;48770;51.624;5.886;2024-02-15T01:27:32;1.80;;;1.27;;
62709;SDS011;48770;51.624;5.886;2024-02-15T01:29:58;2.03;;;1.05;;
62709;SDS011;48770;51.624;5.886;2024-02-15T01:32:24;2.03;;;0.93;;
62709;SDS011;48770;51.624;5.886;2024-02-15T01:34:50;1.27;;;0.90;;
62709;SDS011;48770;51.624;5.886;2024-02-15T01:37:16;2.03;;;1.08;;
62709;SDS011;48770;51.624;5.886;2024-02-15T01:39:42;1.95;;;1.10;;
62709;SDS011;48770;51.624;5.886;2024-02-15T01:42:07;1.67;;;1.02;;
62709;SDS011;48770;51.624;5.886;2024-02-15T01:44:32;1.83;;;1.10;;
62709;SDS011;48770;51.624;5.886;2024-02-15T01:46:58;3.03;;;1.27;;
62709;SDS011;48770;51.624;5.886;2024-02-15T01:49:26;1.60;;;1.17;;
62709;SDS011;48770;51.624;5.886;2024-02-15T01:51:53;1.42;;;1.10;;
62709;SDS011;48770;51.624;5.886;2024-02-15T01:54:21;2.00;;;1.10;;
62709;SDS011;48770;51.624;5.886;2024-02-15T01:56:47;1.77;;;0.95;;
62709;SDS011;48770;51.624;5.886;2024-02-15T01:59:14;2.30;;;1.00;;
62709;SDS011;48770;51.624;5.886;2024-02-15T02:01:40;1.83;;;1.17;;
62709;SDS011;48770;51.624;5.886;2024-02-15T02:04:06;1.20;;;1.00;;
62709;SDS011;48770;51.624;5.886;2024-02-15T02:06:33;1.90;;;1.10;;
62709;SDS011;48770;51.624;5.886;2024-02-15T02:08:59;2.78;;;1.30;;
62709;SDS011;48770;51.624;5.886;2024-02-15T02:11:24;2.45;;;1.30;;
62709;SDS011;48770;51.624;5.886;2024-02-15T02:13:51;2.15;;;1.13;;
62709;SDS011;48770;51.624;5.886;2024-02-15T02:19:00;3.17;;;1.20;;
62709;SDS011;48770;51.624;5.886;2024-02-15T02:21:27;1.83;;;1.27;;
62709;SDS011;48770;51.624;5.886;2024-02-15T02:23:57;1.75;;;0.90;;
62709;SDS011;48770;51.624;5.886;2024-02-15T02:26:23;1.17;;;0.80;;
62709;SDS011;48770;51.624;5.886;2024-02-15T02:28:50;1.50;;;0.93;;
62709;SDS011;48770;51.624;5.886;2024-02-15T02:31:18;2.63;;;1.08;;
62709;SDS011;48770;51.624;5.886;2024-02-15T02:33:52;1.60;;;1.00;;
62709;SDS011;48770;51.624;5.886;2024-02-15T02:36:19;1.23;;;0.90;;
62709;SDS011;48770;51.624;5.886;2024-02-15T02:38:44;2.55;;;1.20;;
62709;SDS011;48770;51.624;5.886;2024-02-15T02:41:11;2.33;;;1.00;;
62709;SDS011;48770;51.624;5.886;2024-02-15T02:43:38;2.30;;;1.10;;
62709;SDS011;48770;51.624;5.886;2024-02-15T02:46:05;2.63;;;0.90;;
62709;SDS011;48770;51.624;5.886;2024-02-15T02:48:31;1.90;;;1.00;;
62709;SDS011;48770;51.624;5.886;2024-02-15T02:50:56;1.73;;;0.80;;
62709;SDS011;48770;51.624;5.886;2024-02-15T02:53:22;2.33;;;1.02;;
62709;SDS011;48770;51.624;5.886;2024-02-15T02:55:48;1.65;;;0.80;;
62709;SDS011;48770;51.624;5.886;2024-02-15T02:58:14;1.73;;;0.90;;
62709;SDS011;48770;51.624;5.886;2024-02-15T03:00:40;2.00;;;0.90;;
62709;SDS011;48770;51.624;5.886;2024-02-15T03:03:05;1.65;;;0.88;;
62709;SDS011;48770;51.624;5.886;2024-02-15T03:05:31;1.23;;;0.90;;
62709;SDS011;48770;51.624;5.886;2024-02-15T03:07:56;3.53;;;1.20;;
62709;SDS011;48770;51.624;5.886;2024-02-15T03:10:22;1.45;;;0.70;;
62709;SDS011;48770;51.624;5.886;2024-02-15T03:12:48;2.42;;;0.95;;
62709;SDS011;48770;51.624;5.886;2024-02-15T03:15:14;1.92;;;0.90;;
62709;SDS011;48770;51.624;5.886;2024-02-15T03:17:40;1.15;;;0.60;;
62709;SDS011;48770;51.624;5.886;2024-02-15T03:20:10;1.67;;;0.80;;
62709;SDS011;48770;51.624;5.886;2024-02-15T03:22:37;2.05;;;0.82;;
62709;SDS011;48770;51.624;5.886;2024-02-15T03:25:03;1.55;;;0.80;;
62709;SDS011;48770;51.624;5.886;2024-02-15T03:27:33;0.88;;;0.70;;
62709;SDS011;48770;51.624;5.886;2024-02-15T03:29:59;1.77;;;0.80;;
62709;SDS011;48770;51.624;5.886;2024-02-15T03:32:25;2.83;;;0.93;;
62709;SDS011;48770;51.624;5.886;2024-02-15T03:34:50;2.78;;;1.00;;
62709;SDS011;48770;51.624;5.886;2024-02-15T03:37:16;2.05;;;0.85;;
62709;SDS011;48770;51.624;5.886;2024-02-15T03:39:43;1.48;;;0.70;;
62709;SDS011;48770;51.624;5.886;2024-02-15T03:42:08;1.70;;;0.95;;
62709;SDS011;48770;51.624;5.886;2024-02-15T03:44:34;2.03;;;0.80;;
62709;SDS011;48770;51.624;5.886;2024-02-15T03:46:59;1.48;;;0.70;;
62709;SDS011;48770;51.624;5.886;2024-02-15T03:49:24;1.33;;;0.88;;
62709;SDS011;48770;51.624;5.886;2024-02-15T03:51:50;2.17;;;1.13;;
62709;SDS011;48770;51.624;5.886;2024-02-15T03:54:15;1.73;;;1.00;;
62709;SDS011;48770;51.624;5.886;2024-02-15T03:56:47;2.03;;;0.95;;
62709;SDS011;48770;51.624;5.886;2024-02-15T03:59:19;1.50;;;0.85;;
62709;SDS011;48770;51.624;5.886;2024-02-15T04:01:51;1.88;;;0.85;;
62709;SDS011;48770;51.624;5.886;2024-02-15T04:04:20;1.23;;;0.75;;
62709;SDS011;48770;51.624;5.886;2024-02-15T04:06:46;1.77;;;0.90;;
62709;SDS011;48770;51.624;5.886;2024-02-15T04:09:12;2.15;;;1.00;;
62709;SDS011;48770;51.624;5.886;2024-02-15T04:11:38;1.38;;;0.80;;
62709;SDS011;48770;51.624;5.886;2024-02-15T04:14:03;1.45;;;0.80;;
62709;SDS011;48770;51.624;5.886;2024-02-15T04:16:28;0.93;;;0.77;;
62709;SDS011;48770;51.624;5.886;2024-02-15T04:18:55;1.52;;;0.80;;
62709;SDS011;48770;51.624;5.886;2024-02-15T04:21:22;1.02;;;0.70;;
62709;SDS011;48770;51.624;5.886;2024-02-15T04:23:48;1.27;;;0.60;;
62709;SDS011;48770;51.624;5.886;2024-02-15T04:26:13;0.85;;;0.65;;
62709;SDS011;48770;51.624;5.886;2024-02-15T04:28:39;2.38;;;0.75;;
62709;SDS011;48770;51.624;5.886;2024-02-15T04:31:05;1.58;;;0.70;;
62709;SDS011;48770;51.624;5.886;2024-02-15T04:33:33;0.73;;;0.52;;
62709;SDS011;48770;51.624;5.886;2024-02-15T04:35:59;1.80;;;0.70;;
62709;SDS011;48770;51.624;5.886;2024-02-15T04:38:27;0.85;;;0.60;;
62709;SDS011;48770;51.624;5.886;2024-02-15T04:40:52;3.22;;;0.90;;
62709;SDS011;48770;51.624;5.886;2024-02-15T04:43:19;1.45;;;0.77;;
62709;SDS011;48770;51.624;5.886;2024-02-15T04:45:44;1.35;;;0.73;;
62709;SDS011;48770;51.624;5.886;2024-02-15T04:48:10;1.40;;;0.70;;
62709;SDS011;48770;51.624;5.886;2024-02-15T04:50:38;1.55;;;0.60;;
62709;SDS011;48770;51.624;5.886;2024-02-15T04:53:08;1.27;;;0.77;;
62709;SDS011;48770;51.624;5.886;2024-02-15T04:55:34;1.67;;;0.70;;
62709;SDS011;48770;51.624;5.886;2024-02-15T04:58:00;1.75;;;0.70;;
62709;SDS011;48770;51.624;5.886;2024-02-15T05:00:26;1.52;;;0.50;;
62709;SDS011;48770;51.624;5.886;2024-02-15T05:02:51;1.98;;;1.00;;
62709;SDS011;48770;51.624;5.886;2024-02-15T05:05:17;1.40;;;0.73;;
62709;SDS011;48770;51.624;5.886;2024-02-15T05:07:43;1.02;;;0.60;;
62709;SDS011;48770;51.624;5.886;2024-02-15T05:10:08;1.38;;;0.50;;
62709;SDS011;48770;51.624;5.886;2024-02-15T05:12:34;2.42;;;0.88;;
62709;SDS011;48770;51.624;5.886;2024-02-15T05:15:00;4.30;;;1.08;;
62709;SDS011;48770;51.624;5.886;2024-02-15T05:17:26;1.80;;;0.77;;
62709;SDS011;48770;51.624;5.886;2024-02-15T05:19:54;1.15;;;0.60;;
62709;SDS011;48770;51.624;5.886;2024-02-15T05:22:23;2.83;;;0.98;;
62709;SDS011;48770;51.624;5.886;2024-02-15T05:24:53;0.93;;;0.50;;
62709;SDS011;48770;51.624;5.886;2024-02-15T05:27:19;1.00;;;0.70;;
62709;SDS011;48770;51.624;5.886;2024-02-15T05:29:45;1.52;;;0.68;;
62709;SDS011;48770;51.624;5.886;2024-02-15T05:32:10;2.28;;;0.90;;
62709;SDS011;48770;51.624;5.886;2024-02-15T05:34:36;1.33;;;0.52;;
62709;SDS011;48770;51.624;5.886;2024-02-15T05:37:04;1.08;;;0.63;;
62709;SDS011;48770;51.624;5.886;2024-02-15T05:39:31;1.52;;;0.70;;
62709;SDS011;48770;51.624;5.886;2024-02-15T05:41:56;1.42;;;0.60;;
62709;SDS011;48770;51.624;5.886;2024-02-15T05:44:25;1.17;;;0.68;;
62709;SDS011;48770;51.624;5.886;2024-02-15T05:46:51;1.05;;;0.60;;
62709;SDS011;48770;51.624;5.886;2024-02-15T05:49:16;1.55;;;0.60;;
62709;SDS011;48770;51.624;5.886;2024-02-15T05:51:42;1.40;;;0.70;;
62709;SDS011;48770;51.624;5.886;2024-02-15T05:54:08;2.13;;;0.77;;
62709;SDS011;48770;51.624;5.886;2024-02-15T05:56:34;0.60;;;0.45;;
62709;SDS011;48770;51.624;5.886;2024-02-15T05:58:59;2.00;;;0.80;;
62709;SDS011;48770;51.624;5.886;2024-02-15T06:01:27;3.55;;;0.90;;
62709;SDS011;48770;51.624;5.886;2024-02-15T06:03:54;1.27;;;0.68;;
62709;SDS011;48770;51.624;5.886;2024-02-15T06:06:20;1.65;;;0.70;;
62709;SDS011;48770;51.624;5.886;2024-02-15T06:08:46;0.98;;;0.65;;
62709;SDS011;48770;51.624;5.886;2024-02-15T06:11:13;1.00;;;0.57;;
62709;SDS011;48770;51.624;5.886;2024-02-15T06:13:43;1.60;;;0.68;;
62709;SDS011;48770;51.624;5.886;2024-02-15T06:16:11;1.15;;;0.70;;
62709;SDS011;48770;51.624;5.886;2024-02-15T06:18:36;1.70;;;0.70;;
62709;SDS011;48770;51.624;5.886;2024-02-15T06:21:02;1.13;;;0.50;;
62709;SDS011;48770;51.624;5.886;2024-02-15T06:23:28;2.10;;;0.75;;
62709;SDS011;48770;51.624;5.886;2024-02-15T06:25:55;2.65;;;0.55;;
62709;SDS011;48770;51.624;5.886;2024-02-15T06:28:23;1.38;;;0.68;;
62709;SDS011;48770;51.624;5.886;2024-02-15T06:31:07;1.52;;;0.70;;
62709;SDS011;48770;51.624;5.886;2024-02-15T06:33:51;1.45;;;0.57;;
62709;SDS011;48770;51.624;5.886;2024-02-15T06:36:39;1.70;;;0.80;;
62709;SDS011;48770;51.624;5.886;2024-02-15T06:39:29;1.35;;;0.60;;
62709;SDS011;48770;51.624;5.886;2024-02-15T06:42:06;1.65;;;0.60;;
62709;SDS011;48770;51.624;5.886;2024-02-15T06:44:32;1.42;;;0.60;;
62709;SDS011;48770;51.624;5.886;2024-02-15T06:46:57;1.95;;;0.63;;
62709;SDS011;48770;51.624;5.886;2024-02-15T06:49:23;0.95;;;0.45;;
62709;SDS011;48770;51.624;5.886;2024-02-15T06:51:50;1.52;;;0.60;;
62709;SDS011;48770;51.624;5.886;2024-02-15T06:54:16;1.85;;;0.70;;
62709;SDS011;48770;51.624;5.886;2024-02-15T06:56:43;2.10;;;0.55;;
62709;SDS011;48770;51.624;5.886;2024-02-15T06:59:11;3.90;;;0.90;;
62709;SDS011;48770;51.624;5.886;2024-02-15T07:01:39;0.98;;;0.63;;
62709;SDS011;48770;51.624;5.886;2024-02-15T07:04:05;1.10;;;0.45;;
62709;SDS011;48770;51.624;5.886;2024-02-15T07:06:30;0.88;;;0.55;;
62709;SDS011;48770;51.624;5.886;2024-02-15T07:08:56;1.80;;;0.60;;
62709;SDS011;48770;51.624;5.886;2024-02-15T07:11:22;1.13;;;0.60;;
62709;SDS011;48770;51.624;5.886;2024-02-15T07:13:47;1.15;;;0.50;;
62709;SDS011;48770;51.624;5.886;2024-02-15T07:16:13;0.68;;;0.47;;
62709;SDS011;48770;51.624;5.886;2024-02-15T07:18:40;0.90;;;0.40;;
62709;SDS011;48770;51.624;5.886;2024-02-15T07:21:05;0.88;;;0.65;;
62709;SDS011;48770;51.624;5.886;2024-02-15T07:23:36;1.35;;;0.47;;
62709;SDS011;48770;51.624;5.886;2024-02-15T07:26:01;1.10;;;0.50;;
62709;SDS011;48770;51.624;5.886;2024-02-15T09:39:04;1.00;;;0.40;;
62709;SDS011;48770;51.624;5.886;2024-02-15T09:41:31;0.68;;;0.22;;
62709;SDS011;48770;51.624;5.886;2024-02-15T09:43:57;1.85;;;0.50;;
62709;SDS011;48770;51.624;5.886;2024-02-15T09:46:22;0.43;;;0.20;;
62709;SDS011;48770;51.624;5.886;2024-02-15T09:48:49;1.83;;;0.60;;
62709;SDS011;48770;51.624;5.886;2024-02-15T09:51:17;1.33;;;0.40;;
62709;SDS011;48770;51.624;5.886;2024-02-15T09:53:43;3.55;;;0.77;;
62709;SDS011;48770;51.624;5.886;2024-02-15T09:56:09;1.10;;;0.50;;
62709;SDS011;48770;51.624;5.886;2024-02-15T09:58:36;0.80;;;0.40;;
62709;SDS011;48770;51.624;5.886;2024-02-15T10:01:04;3.05;;;0.50;;
62709;SDS011;48770;51.624;5.886;2024-02-15T10:03:34;1.85;;;0.57;;
62709;SDS011;48770;51.624;5.886;2024-02-15T10:06:03;2.08;;;0.60;;
62709;SDS011;48770;51.624;5.886;2024-02-15T10:08:31;1.65;;;0.60;;
62709;SDS011;48770;51.624;5.886;2024-02-15T10:11:06;1.85;;;0.55;;
62709;SDS011;48770;51.624;5.886;2024-02-15T10:13:33;3.00;;;0.63;;
62709;SDS011;48770;51.624;5.886;2024-02-15T10:15:59;2.58;;;0.40;;
62709;SDS011;48770;51.624;5.886;2024-02-15T10:18:24;1.88;;;0.75;;
62709;SDS011;48770;51.624;5.886;2024-02-15T10:20:59;2.13;;;0.35;;
62709;SDS011;48770;51.624;5.886;2024-02-15T10:23:24;1.65;;;0.45;;
62709;SDS011;48770;51.624;5.886;2024-02-15T10:25:51;1.52;;;0.50;;
62709;SDS011;48770;51.624;5.886;2024-02-15T10:28:21;6.55;;;0.75;;
62709;SDS011;48770;51.624;5.886;2024-02-15T10:30:49;5.50;;;0.60;;
62709;SDS011;48770;51.624;5.886;2024-02-15T10:33:26;8.65;;;0.85;;
62709;SDS011;48770;51.624;5.886;2024-02-15T10:36:08;4.65;;;0.68;;
62709;SDS011;48770;51.624;5.886;2024-02-15T10:38:36;5.22;;;0.93;;
62709;SDS011;48770;51.624;5.886;2024-02-15T10:41:05;6.65;;;0.70;;
62709;SDS011;48770;51.624;5.886;2024-02-15T10:43:35;6.18;;;0.60;;
62709;SDS011;48770;51.624;5.886;2024-02-15T10:46:03;2.22;;;0.73;;
62709;SDS011;48770;51.624;5.886;2024-02-15T10:48:28;5.85;;;0.95;;
62709;SDS011;48770;51.624;5.886;2024-02-15T10:50:54;4.43;;;0.80;;
62709;SDS011;48770;51.624;5.886;2024-02-15T10:53:26;4.82;;;0.47;;
62709;SDS011;48770;51.624;5.886;2024-02-15T10:58:21;1.85;;;0.60;;
62709;SDS011;48770;51.624;5.886;2024-02-15T11:00:53;4.97;;;0.90;;
62709;SDS011;48770;51.624;5.886;2024-02-15T11:03:20;2.45;;;0.68;;
62709;SDS011;48770;51.624;5.886;2024-02-15T11:05:51;4.15;;;0.68;;
62709;SDS011;48770;51.624;5.886;2024-02-15T11:08:17;2.78;;;0.73;;
62709;SDS011;48770;51.624;5.886;2024-02-15T11:10:43;9.45;;;0.70;;
62709;SDS011;48770;51.624;5.886;2024-02-15T11:13:08;2.67;;;0.70;;
62709;SDS011;48770;51.624;5.886;2024-02-15T11:18:00;6.90;;;1.00;;
62709;SDS011;48770;51.624;5.886;2024-02-15T11:22:57;4.05;;;0.85;;
62709;SDS011;48770;51.624;5.886;2024-02-15T11:25:39;1.70;;;0.70;;
62709;SDS011;48770;51.624;5.886;2024-02-15T11:30:52;4.63;;;0.98;;
62709;SDS011;48770;51.624;5.886;2024-02-15T11:36:11;8.27;;;1.13;;
62709;SDS011;48770;51.624;5.886;2024-02-15T11:38:38;3.38;;;0.82;;
62709;SDS011;48770;51.624;5.886;2024-02-15T11:41:10;4.97;;;1.30;;
62709;SDS011;48770;51.624;5.886;2024-02-15T11:46:17;5.78;;;1.10;;
62709;SDS011;48770;51.624;5.886;2024-02-15T11:48:47;3.45;;;1.40;;
62709;SDS011;48770;51.624;5.886;2024-02-15T11:54:10;3.53;;;1.25;;
62709;SDS011;48770;51.624;5.886;2024-02-15T11:59:16;4.65;;;0.95;;
62709;SDS011;48770;51.624;5.886;2024-02-15T12:01:56;3.22;;;1.25;;
62709;SDS011;48770;51.624;5.886;2024-02-15T12:04:41;10.38;;;1.15;;
62709;SDS011;48770;51.624;5.886;2024-02-15T12:07:25;3.65;;;0.90;;
62709;SDS011;48770;51.624;5.886;2024-02-15T12:10:18;4.70;;;0.80;;
62709;SDS011;48770;51.624;5.886;2024-02-15T12:13:03;2.60;;;1.10;;
62709;SDS011;48770;51.624;5.886;2024-02-15T12:15:57;2.90;;;1.55;;
62709;SDS011;48770;51.624;5.886;2024-02-15T12:18:42;2.55;;;1.00;;
62709;SDS011;48770;51.624;5.886;2024-02-15T12:21:08;2.15;;;1.08;;
62709;SDS011;48770;51.624;5.886;2024-02-15T12:23:37;2.97;;;1.08;;
62709;SDS011;48770;51.624;5.886;2024-02-15T12:26:03;3.97;;;1.00;;
62709;SDS011;48770;51.624;5.886;2024-02-15T12:28:29;4.95;;;1.25;;
62709;SDS011;48770;51.624;5.886;2024-02-15T12:30:55;3.85;;;1.20;;
62709;SDS011;48770;51.624;5.886;2024-02-15T12:33:24;5.13;;;1.23;;
62709;SDS011;48770;51.624;5.886;2024-02-15T12:35:52;4.95;;;0.93;;
62709;SDS011;48770;51.624;5.886;2024-02-15T12:38:29;2.58;;;1.00;;
62709;SDS011;48770;51.624;5.886;2024-02-15T12:40:54;2.55;;;0.80;;
62709;SDS011;48770;51.624;5.886;2024-02-15T12:43:19;4.35;;;1.10;;
62709;SDS011;48770;51.624;5.886;2024-02-15T12:45:45;18.60;;;14.55;;
62709;SDS011;48770;51.624;5.886;2024-02-15T12:48:11;28.55;;;18.30;;
62709;SDS011;48770;51.624;5.886;2024-02-15T12:50:36;42.88;;;31.83;;
62709;SDS011;48770;51.624;5.886;2024-02-15T12:53:02;38.55;;;26.77;;
62709;SDS011;48770;51.624;5.886;2024-02-15T12:55:28;41.53;;;25.15;;
62709;SDS011;48770;51.624;5.886;2024-02-15T12:57:56;55.53;;;34.28;;
62709;SDS011;48770;51.624;5.886;2024-02-15T13:00:26;29.52;;;21.30;;
62709;SDS011;48770;51.624;5.886;2024-02-15T13:02:57;24.40;;;15.98;;
62709;SDS011;48770;51.624;5.886;2024-02-15T13:05:25;26.10;;;17.85;;
62709;SDS011;48770;51.624;5.886;2024-02-15T13:07:51;24.60;;;14.82;;
62709;SDS011;48770;51.624;5.886;2024-02-15T13:10:20;24.52;;;16.17;;
62709;SDS011;48770;51.624;5.886;2024-02-15T13:12:46;28.88;;;15.23;;
62709;SDS011;48770;51.624;5.886;2024-02-15T13:15:13;21.30;;;14.20;;
62709;SDS011;48770;51.624;5.886;2024-02-15T13:17:46;16.73;;;11.23;;
62709;SDS011;48770;51.624;5.886;2024-02-15T13:20:16;16.00;;;11.10;;
62709;SDS011;48770;51.624;5.886;2024-02-15T13:22:45;14.23;;;9.68;;
62709;SDS011;48770;51.624;5.886;2024-02-15T13:25:12;14.57;;;9.48;;
62709;SDS011;48770;51.624;5.886;2024-02-15T13:27:41;13.23;;;8.70;;
62709;SDS011;48770;51.624;5.886;2024-02-15T13:30:08;11.43;;;6.28;;
62709;SDS011;48770;51.624;5.886;2024-02-15T13:32:37;11.20;;;5.85;;
62709;SDS011;48770;51.624;5.886;2024-02-15T13:35:06;10.07;;;5.97;;
62709;SDS011;48770;51.624;5.886;2024-02-15T13:37:41;10.40;;;5.63;;
62709;SDS011;48770;51.624;5.886;2024-02-15T13:40:14;6.43;;;4.68;;
62709;SDS011;48770;51.624;5.886;2024-02-15T13:42:43;10.73;;;4.68;;
62709;SDS011;48770;51.624;5.886;2024-02-15T13:45:14;6.43;;;3.92;;
62709;SDS011;48770;51.624;5.886;2024-02-15T13:47:46;6.70;;;3.50;;
62709;SDS011;48770;51.624;5.886;2024-02-15T13:50:15;8.20;;;3.90;;
62709;SDS011;48770;51.624;5.886;2024-02-15T13:52:42;5.47;;;3.33;;
62709;SDS011;48770;51.624;5.886;2024-02-15T13:55:18;7.15;;;3.72;;
62709;SDS011;48770;51.624;5.886;2024-02-15T13:57:45;3.67;;;2.63;;
62709;SDS011;48770;51.624;5.886;2024-02-15T14:00:12;6.43;;;3.15;;
62709;SDS011;48770;51.624;5.886;2024-02-15T14:02:50;5.28;;;2.38;;
62709;SDS011;48770;51.624;5.886;2024-02-15T14:05:16;3.30;;;2.08;;
62709;SDS011;48770;51.624;5.886;2024-02-15T14:07:48;3.20;;;1.50;;
62709;SDS011;48770;51.624;5.886;2024-02-15T14:10:20;3.30;;;1.85;;
62709;SDS011;48770;51.624;5.886;2024-02-15T14:12:50;5.20;;;1.67;;
62709;SDS011;48770;51.624;5.886;2024-02-15T14:15:32;2.90;;;1.48;;
62709;SDS011;48770;51.624;5.886;2024-02-15T14:18:08;2.88;;;1.73;;
62709;SDS011;48770;51.624;5.886;2024-02-15T14:20:35;5.85;;;1.92;;
62709;SDS011;48770;51.624;5.886;2024-02-15T14:23:01;2.47;;;1.52;;
62709;SDS011;48770;51.624;5.886;2024-02-15T14:25:31;2.20;;;1.30;;
62709;SDS011;48770;51.624;5.886;2024-02-15T14:27:57;2.95;;;1.02;;
62709;SDS011;48770;51.624;5.886;2024-02-15T14:30:23;1.98;;;1.05;;
62709;SDS011;48770;51.624;5.886;2024-02-15T14:33:07;3.88;;;1.30;;
62709;SDS011;48770;51.624;5.886;2024-02-15T14:35:36;4.45;;;1.30;;
62709;SDS011;48770;51.624;5.886;2024-02-15T14:38:07;3.60;;;0.95;;
62709;SDS011;48770;51.624;5.886;2024-02-15T14:43:07;3.95;;;1.02;;
62709;SDS011;48770;51.624;5.886;2024-02-15T14:45:34;3.40;;;1.17;;
62709;SDS011;48770;51.624;5.886;2024-02-15T14:48:01;2.55;;;0.93;;
62709;SDS011;48770;51.624;5.886;2024-02-15T14:50:27;2.33;;;1.00;;
62709;SDS011;48770;51.624;5.886;2024-02-15T14:52:53;2.15;;;0.80;;
62709;SDS011;48770;51.624;5.886;2024-02-15T14:55:19;2.70;;;0.90;;
62709;SDS011;48770;51.624;5.886;2024-02-15T14:57:45;2.95;;;0.95;;
62709;SDS011;48770;51.624;5.886;2024-02-15T15:00:12;2.75;;;1.00;;
62709;SDS011;48770;51.624;5.886;2024-02-15T15:02:39;2.45;;;1.10;;
62709;SDS011;48770;51.624;5.886;2024-02-15T15:05:08;2.40;;;0.77;;
62709;SDS011;48770;51.624;5.886;2024-02-15T15:07:52;3.35;;;0.70;;
62709;SDS011;48770;51.624;5.886;2024-02-15T15:10:36;2.88;;;0.50;;
62709;SDS011;48770;51.624;5.886;2024-02-15T15:13:20;1.45;;;0.65;;
62709;SDS011;48770;51.624;5.886;2024-02-15T15:15:46;1.30;;;0.75;;
62709;SDS011;48770;51.624;5.886;2024-02-15T15:18:13;1.92;;;1.02;;
62709;SDS011;48770;51.624;5.886;2024-02-15T15:20:38;2.28;;;0.82;;
62709;SDS011;48770;51.624;5.886;2024-02-15T15:23:05;2.13;;;0.70;;
62709;SDS011;48770;51.624;5.886;2024-02-15T15:25:31;1.20;;;0.65;;
62709;SDS011;48770;51.624;5.886;2024-02-15T15:28:02;1.60;;;0.55;;
62709;SDS011;48770;51.624;5.886;2024-02-15T15:30:30;2.92;;;1.00;;
62709;SDS011;48770;51.624;5.886;2024-02-15T15:32:56;2.60;;;0.90;;
62709;SDS011;48770;51.624;5.886;2024-02-15T15:35:22;1.60;;;0.68;;
62709;SDS011;48770;51.624;5.886;2024-02-15T15:37:48;2.03;;;0.65;;
62709;SDS011;48770;51.624;5.886;2024-02-15T15:40:17;0.77;;;0.50;;
62709;SDS011;48770;51.624;5.886;2024-02-15T15:42:43;1.42;;;0.60;;
62709;SDS011;48770;51.624;5.886;2024-02-15T15:45:09;1.58;;;0.60;;
62709;SDS011;48770;51.624;5.886;2024-02-15T15:47:35;1.40;;;0.70;;
62709;SDS011;48770;51.624;5.886;2024-02-15T15:50:01;1.90;;;0.93;;
62709;SDS011;48770;51.624;5.886;2024-02-15T15:52:27;1.65;;;0.63;;
62709;SDS011;48770;51.624;5.886;2024-02-15T15:54:53;1.50;;;0.60;;
62709;SDS011;48770;51.624;5.886;2024-02-15T15:57:18;2.03;;;0.50;;
62709;SDS011;48770;51.624;5.886;2024-02-15T15:59:44;1.30;;;0.65;;
62709;SDS011;48770;51.624;5.886;2024-02-15T16:02:10;0.65;;;0.50;;
62709;SDS011;48770;51.624;5.886;2024-02-15T16:04:46;1.73;;;0.80;;
62709;SDS011;48770;51.624;5.886;2024-02-15T16:07:13;1.15;;;0.55;;
62709;SDS011;48770;51.624;5.886;2024-02-15T16:09:39;2.78;;;0.70;;
62709;SDS011;48770;51.624;5.886;2024-02-15T16:12:11;1.60;;;0.35;;
62709;SDS011;48770;51.624;5.886;2024-02-15T16:14:41;2.08;;;0.73;;
62709;SDS011;48770;51.624;5.886;2024-02-15T16:17:10;1.75;;;0.60;;
62709;SDS011;48770;51.624;5.886;2024-02-15T16:19:36;0.98;;;0.50;;
62709;SDS011;48770;51.624;5.886;2024-02-15T16:22:01;1.45;;;0.50;;
62709;SDS011;48770;51.624;5.886;2024-02-15T16:24:27;1.50;;;0.57;;
62709;SDS011;48770;51.624;5.886;2024-02-15T16:26:53;0.70;;;0.50;;
62709;SDS011;48770;51.624;5.886;2024-02-15T16:29:19;1.77;;;0.32;;
62709;SDS011;48770;51.624;5.886;2024-02-15T16:31:44;1.10;;;0.47;;
62709;SDS011;48770;51.624;5.886;2024-02-15T16:34:11;1.25;;;0.68;;
62709;SDS011;48770;51.624;5.886;2024-02-15T16:36:37;2.05;;;0.65;;
62709;SDS011;48770;51.624;5.886;2024-02-15T16:39:04;0.98;;;0.50;;
62709;SDS011;48770;51.624;5.886;2024-02-15T16:41:31;0.50;;;0.43;;
62709;SDS011;48770;51.624;5.886;2024-02-15T16:43:56;1.00;;;0.50;;
62709;SDS011;48770;51.624;5.886;2024-02-15T16:46:22;1.40;;;0.45;;
62709;SDS011;48770;51.624;5.886;2024-02-15T16:48:49;1.05;;;0.60;;
62709;SDS011;48770;51.624;5.886;2024-02-15T16:51:16;1.15;;;0.50;;
62709;SDS011;48770;51.624;5.886;2024-02-15T16:53:44;0.77;;;0.60;;
62709;SDS011;48770;51.624;5.886;2024-02-15T16:56:15;1.50;;;0.60;;
62709;SDS011;48770;51.624;5.886;2024-02-15T16:58:41;1.10;;;0.50;;
62709;SDS011;48770;51.624;5.886;2024-02-15T17:01:07;0.65;;;0.47;;
62709;SDS011;48770;51.624;5.886;2024-02-15T17:03:33;1.00;;;0.40;;
62709;SDS011;48770;51.624;5.886;2024-02-15T17:05:59;1.23;;;0.47;;
62709;SDS011;48770;51.624;5.886;2024-02-15T17:08:26;0.75;;;0.52;;
62709;SDS011;48770;51.624;5.886;2024-02-15T17:10:52;1.13;;;0.60;;
62709;SDS011;48770;51.624;5.886;2024-02-15T17:13:17;0.85;;;0.50;;
62709;SDS011;48770;51.624;5.886;2024-02-15T17:15:44;0.65;;;0.30;;
62709;SDS011;48770;51.624;5.886;2024-02-15T17:18:09;1.52;;;0.50;;
62709;SDS011;48770;51.624;5.886;2024-02-15T17:20:35;1.30;;;0.40;;
62709;SDS011;48770;51.624;5.886;2024-02-15T17:23:00;0.80;;;0.40;;
62709;SDS011;48770;51.624;5.886;2024-02-15T17:25:25;1.58;;;0.50;;